Time;durP1;ratioP1;P1;durP2;ratioP2;P2;SDS_P1;SDS_P2;PMS_P1;PMS_P2;Temp;Humidity;BMP_temperature;BMP_pressure;BME280_temperature;BME280_humidity;BME280_pressure;Samples;Min_cycle;Max_cycle;Signal;HPM_P1;HPM_P2
2023/08/07 00:02:06;;;;;;;11.30;1.88;;;;;;;20.77;100.00;99291.81;5113023;28;20229;-70
2023/08/07 00:04:33;;;;;;;17.20;2.40;;;;;;;20.69;100.00;99302.66;5069970;28;20198;-69
2023/08/07 00:07:00;;;;;;;12.98;1.92;;;;;;;20.78;100.00;99304.09;5110723;28;20644;-69
2023/08/07 00:09:27;;;;;;;9.07;1.63;;;;;;;20.83;100.00;99299.50;5077164;28;20197;-70
2023/08/07 00:11:53;;;;;;;12.52;2.05;;;;;;;20.75;100.00;99296.31;5113132;28;20216;-70
2023/08/07 00:14:20;;;;;;;7.40;1.55;;;;;;;20.83;100.00;99304.78;5113284;28;20229;-72
2023/08/07 00:16:47;;;;;;;11.13;1.83;;;;;;;20.72;100.00;99312.22;5113106;28;20320;-70
2023/08/07 00:19:15;;;;;;;8.68;1.60;;;;;;;20.70;100.00;99298.25;5112249;28;20563;-69
2023/08/07 00:21:42;;;;;;;8.00;1.40;;;;;;;20.47;100.00;99287.75;5096643;28;20197;-70
2023/08/07 00:24:09;;;;;;;8.27;1.58;;;;;;;20.39;100.00;99263.47;5073475;28;20201;-71
2023/08/07 00:26:35;;;;;;;15.25;2.25;;;;;;;20.56;100.00;99303.19;5104412;28;20198;-71
2023/08/07 00:29:02;;;;;;;8.23;1.55;;;;;;;20.53;100.00;99295.41;5112864;28;20204;-70
2023/08/07 00:31:31;;;;;;;9.75;1.58;;;;;;;20.55;100.00;99312.84;5112572;28;20205;-69
2023/08/07 00:33:57;;;;;;;14.07;2.22;;;;;;;20.43;100.00;99304.56;5110248;28;20788;-70
2023/08/07 00:36:28;;;;;;;16.10;2.22;;;;;;;20.53;100.00;99314.69;5102875;28;20208;-69
2023/08/07 00:38:55;;;;;;;17.50;2.30;;;;;;;20.48;100.00;99315.78;5125539;27;20189;-68
2023/08/07 00:41:22;;;;;;;11.43;1.92;;;;;;;20.51;100.00;99320.94;5112493;28;20254;-69
2023/08/07 00:43:49;;;;;;;16.00;2.17;;;;;;;20.27;100.00;99297.22;5075634;28;20198;-68
2023/08/07 00:46:15;;;;;;;11.55;1.85;;;;;;;20.42;100.00;99332.66;5111538;28;20198;-69
2023/08/07 00:48:42;;;;;;;17.58;2.30;;;;;;;20.23;100.00;99311.38;5112466;28;20194;-68
2023/08/07 00:51:10;;;;;;;12.73;2.00;;;;;;;20.38;100.00;99328.44;5112172;28;20708;-69
2023/08/07 00:53:40;;;;;;;15.38;2.05;;;;;;;20.30;100.00;99305.94;5112663;28;20189;-69
2023/08/07 00:56:07;;;;;;;11.90;1.98;;;;;;;20.30;100.00;99327.84;5109743;28;20760;-70
2023/08/07 00:58:35;;;;;;;13.48;1.92;;;;;;;20.34;100.00;99333.84;5112146;28;20209;-70
2023/08/07 01:01:02;;;;;;;17.15;2.60;;;;;;;20.24;100.00;99323.63;5112161;28;20233;-70
2023/08/07 01:03:28;;;;;;;17.90;2.42;;;;;;;20.24;100.00;99328.91;5111717;28;20210;-68
2023/08/07 01:05:55;;;;;;;14.75;2.20;;;;;;;20.10;100.00;99306.63;5111938;28;20205;-68
2023/08/07 01:08:22;;;;;;;10.48;1.75;;;;;;;20.17;100.00;99323.91;5112348;28;20197;-70
2023/08/07 01:11:07;;;;;;;6.95;1.42;;;;;;;20.33;100.00;99337.44;5076115;28;20268;-69
2023/08/07 01:13:38;;;;;;;11.88;1.90;;;;;;;20.25;100.00;99348.19;5045224;28;20205;-69
2023/08/07 01:16:12;;;;;;;13.02;1.92;;;;;;;20.16;100.00;99330.94;5101721;28;20233;-70
2023/08/07 01:18:40;;;;;;;11.02;1.80;;;;;;;20.18;100.00;99344.94;5111778;28;20207;-68
2023/08/07 01:21:07;;;;;;;10.90;1.83;;;;;;;20.08;100.00;99338.25;5059931;28;20751;-69
2023/08/07 01:23:35;;;;;;;8.57;1.65;;;;;;;20.10;100.00;99339.06;5112158;28;20197;-69
2023/08/07 01:26:03;;;;;;;13.88;1.92;;;;;;;20.00;100.00;99344.72;5059483;28;20275;-69
2023/08/07 01:28:34;;;;;;;12.07;1.83;;;;;;;19.96;100.00;99322.03;5059685;28;20205;-71
2023/08/07 01:31:08;;;;;;;12.88;2.00;;;;;;;19.86;100.00;99350.47;5111357;28;20205;-68
2023/08/07 01:33:43;;;;;;;16.63;2.28;;;;;;;20.00;100.00;99349.97;5111686;28;20576;-70
2023/08/07 01:36:11;;;;;;;17.10;2.28;;;;;;;20.05;100.00;99364.69;5111026;28;20224;-69
2023/08/07 01:38:41;;;;;;;16.65;2.25;;;;;;;20.01;100.00;99364.88;5111354;28;20202;-69
2023/08/07 01:41:08;;;;;;;9.93;1.70;;;;;;;19.96;100.00;99365.00;5075662;28;20189;-69
2023/08/07 01:43:35;;;;;;;12.70;1.95;;;;;;;20.03;100.00;99368.28;5111607;28;20216;-69
2023/08/07 01:46:02;;;;;;;11.55;1.75;;;;;;;20.05;100.00;99358.56;5111361;28;20194;-69
2023/08/07 01:48:29;;;;;;;22.23;2.67;;;;;;;19.77;100.00;99329.72;5111397;28;20204;-69
2023/08/07 01:50:56;;;;;;;10.90;1.75;;;;;;;19.90;100.00;99359.97;5111356;28;20197;-69
2023/08/07 01:53:23;;;;;;;19.00;2.58;;;;;;;19.86;100.00;99368.00;5110769;28;20786;-70
2023/08/07 01:55:51;;;;;;;13.65;1.95;;;;;;;19.96;100.00;99379.94;5111224;28;20225;-69
2023/08/07 01:58:18;;;;;;;16.33;2.20;;;;;;;19.95;100.00;99379.06;5110760;28;20583;-70
2023/08/07 02:00:44;;;;;;;11.75;1.67;;;;;;;19.84;100.00;99381.19;5111160;28;20201;-69
2023/08/07 02:03:11;;;;;;;19.27;2.53;;;;;;;19.83;100.00;99390.03;5110517;28;20197;-69
2023/08/07 02:05:38;;;;;;;13.38;2.03;;;;;;;19.82;100.00;99395.34;5110672;28;20224;-70
2023/08/07 02:08:05;;;;;;;21.67;2.67;;;;;;;19.89;100.00;99381.94;5111153;28;20223;-69
2023/08/07 02:10:32;;;;;;;11.02;1.80;;;;;;;19.89;100.00;99388.94;5111070;28;20194;-70
2023/08/07 02:13:00;;;;;;;20.40;2.50;;;;;;;19.90;100.00;99391.53;5111044;28;20220;-69
2023/08/07 02:15:27;;;;;;;13.48;2.05;;;;;;;19.78;100.00;99382.28;5084455;28;20226;-69
2023/08/07 02:17:53;;;;;;;17.23;2.38;;;;;;;19.80;100.00;99411.16;5106771;28;20201;-69
2023/08/07 02:20:20;;;;;;;14.32;2.00;;;;;;;19.76;100.00;99404.31;5111000;28;20205;-69
2023/08/07 02:22:47;;;;;;;9.63;1.70;;;;;;;19.68;100.00;99412.44;5110842;28;20208;-69
2023/08/07 02:25:14;;;;;;;12.63;1.90;;;;;;;19.69;100.00;99414.13;5110933;28;20205;-69
2023/08/07 02:27:40;;;;;;;14.70;2.25;;;;;;;19.70;100.00;99409.75;5110910;28;20197;-69
2023/08/07 02:30:09;;;;;;;10.93;1.60;;;;;;;19.85;100.00;99422.41;5111395;28;20599;-69
2023/08/07 02:32:36;;;;;;;12.48;1.90;;;;;;;19.62;100.00;99398.63;5110746;28;20262;-69
2023/08/07 02:35:03;;;;;;;13.80;1.95;;;;;;;19.73;100.00;99420.16;5110570;28;20229;-70
2023/08/07 02:37:30;;;;;;;14.45;1.98;;;;;;;19.76;100.00;99435.88;5111224;28;20656;-70
2023/08/07 02:39:56;;;;;;;15.63;2.20;;;;;;;19.74;100.00;99425.38;5110844;28;20652;-69
2023/08/07 02:42:23;;;;;;;11.98;1.75;;;;;;;19.73;100.00;99415.75;5058616;28;20201;-69
2023/08/07 02:44:50;;;;;;;15.18;2.15;;;;;;;19.64;100.00;99407.31;5059022;28;20209;-69
2023/08/07 02:47:18;;;;;;;15.18;2.05;;;;;;;19.69;100.00;99418.56;5110841;28;20193;-70
2023/08/07 02:49:45;;;;;;;15.32;2.15;;;;;;;19.10;100.00;99331.91;5058473;28;20204;-70
2023/08/07 02:52:11;;;;;;;10.18;1.67;;;;;;;19.57;100.00;99419.81;5110789;28;20202;-68
2023/08/07 02:54:38;;;;;;;10.75;1.67;;;;;;;19.52;100.00;99426.97;5110496;28;20194;-69
2023/08/07 02:57:05;;;;;;;12.60;1.95;;;;;;;19.55;100.00;99420.78;5110602;28;20202;-69
2023/08/07 02:59:32;;;;;;;12.68;1.88;;;;;;;19.58;100.00;99436.47;5110893;28;20209;-69
2023/08/07 03:01:59;;;;;;;8.55;1.50;;;;;;;19.63;100.00;99445.03;5074267;28;20229;-70
2023/08/07 03:04:27;;;;;;;13.70;2.03;;;;;;;19.67;100.00;99447.53;5110512;28;20194;-69
2023/08/07 03:06:54;;;;;;;15.90;2.28;;;;;;;19.58;100.00;99453.09;5110890;28;20213;-70
2023/08/07 03:09:21;;;;;;;14.25;2.03;;;;;;;19.68;100.00;99451.91;5112746;28;20204;-87
2023/08/07 03:11:48;;;;;;;12.48;1.95;;;;;;;19.77;100.00;99448.09;5115613;28;20201;-86
2023/08/07 03:14:14;;;;;;;10.55;1.73;;;;;;;19.74;100.00;99456.09;5115764;28;20190;-87
2023/08/07 03:16:41;;;;;;;15.45;2.17;;;;;;;19.68;100.00;99457.16;5094442;28;20229;-69
2023/08/07 03:19:08;;;;;;;16.17;2.13;;;;;;;19.58;100.00;99457.50;5094123;28;20206;-69
2023/08/07 03:21:36;;;;;;;18.60;2.38;;;;;;;19.62;100.00;99459.13;5094103;28;20194;-69
2023/08/07 03:24:03;;;;;;;15.57;2.17;;;;;;;19.57;100.00;99455.78;5042086;28;20190;-69
2023/08/07 03:26:29;;;;;;;13.73;1.98;;;;;;;19.47;100.00;99464.84;5094531;28;20209;-69
2023/08/07 03:28:56;;;;;;;10.93;1.80;;;;;;;19.52;100.00;99471.69;5114565;28;20647;-69
2023/08/07 03:31:23;;;;;;;15.93;2.28;;;;;;;19.58;100.00;99468.03;5114190;28;20216;-68
2023/08/07 03:33:50;;;;;;;15.32;2.13;;;;;;;19.62;100.00;99467.03;5114250;28;20213;-69
2023/08/07 03:36:16;;;;;;;19.10;2.45;;;;;;;19.41;100.00;99438.69;5114216;28;20233;-68
2023/08/07 03:38:45;;;;;;;14.32;2.00;;;;;;;19.63;100.00;99459.06;5114536;28;20202;-69
2023/08/07 03:41:11;;;;;;;17.88;2.35;;;;;;;19.59;100.00;99454.81;5113852;28;20254;-69
2023/08/07 03:43:38;;;;;;;19.20;2.42;;;;;;;19.69;100.00;99458.03;5113901;28;20204;-70
2023/08/07 03:46:05;;;;;;;17.33;2.55;;;;;;;19.72;100.00;99428.97;5113674;28;20201;-68
2023/08/07 03:48:32;;;;;;;16.65;2.30;;;;;;;20.18;100.00;99433.56;5113324;28;20205;-70
2023/08/07 03:51:03;;;;;;;17.15;2.25;;;;;;;20.89;100.00;99441.56;5113136;28;20216;-69
2023/08/07 03:53:30;;;;;;;12.15;1.90;;;;;;;21.27;100.00;99459.47;5077948;28;20221;-68
2023/08/07 03:55:58;;;;;;;14.43;2.17;;;;;;;21.43;100.00;99466.78;5113431;28;20213;-69
2023/08/07 03:58:25;;;;;;;15.65;2.33;;;;;;;21.84;100.00;99462.47;5077277;28;20216;-68
2023/08/07 04:00:52;;;;;;;13.82;2.05;;;;;;;22.09;98.57;99474.66;5057100;28;20212;-68
2023/08/07 04:03:20;;;;;;;14.05;2.08;;;;;;;21.98;97.94;99482.16;5096445;28;20741;-76
2023/08/07 04:05:47;;;;;;;16.45;2.30;;;;;;;22.34;94.54;99473.63;5113441;28;20209;-74
2023/08/07 04:08:14;;;;;;;17.77;2.33;;;;;;;22.61;92.92;99483.03;5113214;28;20209;-75
2023/08/07 04:10:41;;;;;;;20.23;2.67;;;;;;;22.20;93.29;99475.06;5112660;28;20201;-74
2023/08/07 04:13:09;;;;;;;18.63;2.33;;;;;;;22.51;92.66;99474.59;5101032;28;20201;-73
2023/08/07 04:15:36;;;;;;;15.30;2.45;;;;;;;23.05;88.08;99470.47;5112052;28;20225;-77
2023/08/07 04:18:02;;;;;;;15.07;2.05;;;;;;;23.14;87.07;99478.00;5105183;28;20564;-75
2023/08/07 04:20:29;;;;;;;15.13;2.05;;;;;;;23.31;85.48;99487.81;5059722;28;20205;-75
2023/08/07 04:22:56;;;;;;;15.32;2.22;;;;;;;23.29;84.63;99468.50;5112623;28;20239;-75
2023/08/07 04:25:23;;;;;;;12.70;1.90;;;;;;;23.38;83.90;99447.75;5076848;28;20197;-74
2023/08/07 04:27:49;;;;;;;15.65;2.38;;;;;;;24.02;80.37;99479.97;5111823;28;20205;-73
2023/08/07 04:30:18;;;;;;;15.18;2.13;;;;;;;23.54;80.02;99413.53;5112074;28;20201;-73
2023/08/07 04:32:44;;;;;;;12.43;1.83;;;;;;;24.06;79.68;99483.31;5112478;28;20209;-74
2023/08/07 04:35:11;;;;;;;13.05;2.50;;;;;;;23.36;80.65;99485.81;5057499;28;20208;-74
2023/08/07 04:37:38;;;;;;;12.05;2.28;;;;;;;23.59;81.73;99501.50;5076341;28;20201;-74
2023/08/07 04:40:05;;;;;;;19.50;2.53;;;;;;;23.84;78.68;99490.59;5104714;28;20220;-75
2023/08/07 04:42:32;;;;;;;15.35;2.25;;;;;;;23.83;79.37;99502.97;5112308;28;20205;-74
2023/08/07 04:44:59;;;;;;;18.80;2.53;;;;;;;23.80;78.34;99503.13;5057345;28;20208;-74
2023/08/07 04:47:29;;;;;;;15.65;2.30;;;;;;;24.03;78.00;99513.47;5059457;28;20200;-76
2023/08/07 04:49:56;;;;;;;12.45;2.00;;;;;;;24.34;76.57;99519.91;5112404;28;20204;-75
2023/08/07 04:52:23;;;;;;;11.75;1.85;;;;;;;23.98;77.32;99518.13;5058048;28;20213;-75
2023/08/07 04:54:49;;;;;;;12.15;1.88;;;;;;;24.44;74.54;99529.97;5112664;28;20220;-75
2023/08/07 04:57:16;;;;;;;15.52;2.22;;;;;;;23.97;74.57;99487.25;5076384;28;20244;-75
2023/08/07 04:59:43;;;;;;;16.52;2.35;;;;;;;23.91;76.65;99487.56;5110480;28;20193;-73
2023/08/07 05:02:10;;;;;;;13.55;2.00;;;;;;;24.75;73.93;99504.56;5046803;28;20272;-75
2023/08/07 05:04:38;;;;;;;13.82;2.08;;;;;;;24.67;71.93;99497.88;5073652;28;20222;-75
2023/08/07 05:07:05;;;;;;;15.23;2.28;;;;;;;24.24;74.79;99500.13;5083121;28;20206;-75
2023/08/07 05:09:32;;;;;;;12.52;2.08;;;;;;;24.58;74.70;99502.75;5087172;28;20198;-74
2023/08/07 05:11:59;;;;;;;12.68;2.03;;;;;;;25.16;70.07;99514.72;5056374;28;20205;-74
2023/08/07 05:14:25;;;;;;;13.45;2.15;;;;;;;24.45;71.45;99534.34;5092026;28;20198;-75
2023/08/07 05:16:52;;;;;;;9.55;1.55;;;;;;;24.05;73.63;99493.03;5056261;28;20214;-71
2023/08/07 05:19:19;;;;;;;8.70;1.55;;;;;;;24.22;74.72;99528.50;5082262;28;20207;-72
2023/08/07 05:21:49;;;;;;;5.43;1.20;;;;;;;24.37;74.49;99530.34;5080340;28;20202;-72
2023/08/07 05:24:16;;;;;;;9.73;1.50;;;;;;;24.74;72.92;99543.47;5085461;28;20199;-72
2023/08/07 05:26:43;;;;;;;13.82;2.17;;;;;;;23.83;73.07;99473.84;5066108;28;20214;-73
2023/08/07 05:29:10;;;;;;;27.48;3.20;;;;;;;24.49;73.56;99545.66;5070929;28;20207;-69
2023/08/07 05:31:37;;;;;;;12.05;2.00;;;;;;;24.03;74.97;99561.16;5061485;28;20208;-72
2023/08/07 05:34:04;;;;;;;14.77;1.98;;;;;;;23.59;76.45;99536.75;5063987;28;20316;-73
2023/08/07 05:36:32;;;;;;;8.02;1.63;;;;;;;23.50;77.74;99561.03;5063119;28;20218;-71
2023/08/07 05:39:00;;;;;;;18.52;2.50;;;;;;;23.22;80.83;99556.06;5069729;28;20199;-73
2023/08/07 05:41:27;;;;;;;10.60;1.77;;;;;;;23.40;80.01;99564.13;5061263;28;20277;-72
2023/08/07 05:52:34;;;;;;;8.45;1.85;;;;;;;23.63;77.09;99556.88;5087921;27;20529;-71
2023/08/07 05:55:01;;;;;;;13.02;2.20;;;;;;;23.66;77.53;99571.75;5087999;28;20218;-70
2023/08/07 05:57:27;;;;;;;11.07;1.92;;;;;;;23.60;78.37;99579.97;5063767;28;20207;-72
2023/08/07 05:59:54;;;;;;;11.95;2.67;;;;;;;23.24;78.38;99548.06;5067202;28;20194;-72
2023/08/07 06:02:21;;;;;;;10.23;2.17;;;;;;;23.45;79.86;99556.84;5084118;28;20226;-71
2023/08/07 06:04:48;;;;;;;12.98;2.17;;;;;;;23.37;80.76;99582.75;5053767;28;20201;-71
2023/08/07 06:07:15;;;;;;;7.70;1.50;;;;;;;23.41;79.24;99558.78;5066222;28;20199;-70
2023/08/07 06:09:43;;;;;;;14.05;2.35;;;;;;;23.37;80.03;99573.03;5080088;28;20198;-71
2023/08/07 06:12:10;;;;;;;11.45;2.08;;;;;;;22.99;81.82;99574.75;5068664;28;20203;-72
2023/08/07 06:14:38;;;;;;;13.25;2.28;;;;;;;22.75;83.44;99578.47;5070201;28;20205;-71
2023/08/07 06:17:05;;;;;;;13.90;2.33;;;;;;;22.81;85.67;99578.19;5084147;28;20198;-72
2023/08/07 06:19:32;;;;;;;10.30;1.98;;;;;;;23.12;84.82;99580.34;5073040;28;20221;-71
2023/08/07 06:21:59;;;;;;;9.75;1.95;;;;;;;23.05;83.73;99584.19;5080108;28;20226;-71
2023/08/07 06:24:26;;;;;;;13.68;2.45;;;;;;;23.07;84.58;99583.22;5077599;28;20663;-71
2023/08/07 06:26:54;;;;;;;10.05;1.85;;;;;;;23.11;82.96;99590.09;5055318;28;20239;-71
2023/08/07 06:29:21;;;;;;;11.45;2.05;;;;;;;22.97;84.10;99581.06;5030907;28;20349;-72
2023/08/07 06:31:48;;;;;;;13.07;2.25;;;;;;;22.74;85.08;99582.03;5038155;28;20210;-72
2023/08/07 06:34:14;;;;;;;12.95;2.22;;;;;;;22.82;85.30;99584.34;5058913;28;20630;-72
2023/08/07 06:36:41;;;;;;;11.65;2.05;;;;;;;23.00;83.56;99581.78;5066480;28;20200;-74
2023/08/07 06:39:08;;;;;;;13.57;2.25;;;;;;;23.19;81.42;99587.94;5057778;28;20211;-73
2023/08/07 06:41:35;;;;;;;7.47;1.52;;;;;;;23.21;82.22;99553.50;5058948;28;20611;-71
2023/08/07 06:44:03;;;;;;;11.82;2.00;;;;;;;23.43;79.85;99564.03;5063098;28;20207;-71
2023/08/07 06:46:30;;;;;;;8.48;1.77;;;;;;;23.44;80.47;99576.31;5059735;28;20207;-72
2023/08/07 06:48:57;;;;;;;12.23;2.10;;;;;;;23.52;80.14;99585.63;5082197;28;20207;-73
2023/08/07 06:51:24;;;;;;;9.48;1.85;;;;;;;23.46;80.39;99579.75;5083745;28;20249;-73
2023/08/07 06:53:50;;;;;;;11.85;2.10;;;;;;;23.60;80.03;99582.63;5080228;28;20206;-72
2023/08/07 06:56:17;;;;;;;11.85;1.92;;;;;;;23.83;78.30;99578.91;5063760;28;20202;-72
2023/08/07 06:58:44;;;;;;;13.13;2.20;;;;;;;23.88;77.43;99577.75;5071404;28;20565;-72
2023/08/07 07:01:12;;;;;;;18.48;2.72;;;;;;;23.88;76.50;99580.41;5065342;28;20231;-72
2023/08/07 07:03:39;;;;;;;9.52;1.85;;;;;;;23.72;77.35;99574.13;5056239;28;20199;-72
2023/08/07 07:06:06;;;;;;;8.65;1.63;;;;;;;23.83;77.12;99590.34;5054791;28;20196;-72
2023/08/07 07:08:32;;;;;;;13.43;2.22;;;;;;;23.71;75.77;99590.94;5053319;28;20207;-72
2023/08/07 07:10:59;;;;;;;9.25;1.70;;;;;;;23.59;77.39;99592.34;5053076;28;20208;-72
2023/08/07 07:13:26;;;;;;;9.68;1.80;;;;;;;23.52;77.60;99600.63;5052970;28;20203;-72
2023/08/07 07:15:56;;;;;;;10.15;1.95;;;;;;;23.67;78.91;99599.94;5052903;28;20203;-72
2023/08/07 07:18:24;;;;;;;12.02;2.00;;;;;;;23.60;78.72;99604.66;5052556;28;20203;-72
2023/08/07 07:20:58;;;;;;;10.82;1.80;;;;;;;23.83;77.88;99611.53;5052861;28;20317;-73
2023/08/07 07:23:25;;;;;;;9.68;1.83;;;;;;;23.90;77.77;99604.19;5052739;28;20290;-73
2023/08/07 07:25:52;;;;;;;9.73;1.75;;;;;;;24.05;77.24;99608.72;5017585;28;20229;-71
2023/08/07 07:28:18;;;;;;;10.73;2.00;;;;;;;24.07;75.34;99621.00;5052554;28;20203;-71
2023/08/07 07:30:45;;;;;;;13.60;2.25;;;;;;;24.13;74.40;99620.72;5068112;28;20279;-75
2023/08/07 07:33:13;;;;;;;12.27;2.03;;;;;;;24.18;72.87;99621.38;5056360;28;20203;-76
2023/08/07 07:35:42;;;;;;;12.27;2.17;;;;;;;24.43;72.52;99623.69;5049368;28;20203;-75
2023/08/07 07:38:10;;;;;;;11.38;2.08;;;;;;;24.38;71.51;99628.34;5044882;28;20196;-74
2023/08/07 07:40:37;;;;;;;10.73;2.05;;;;;;;24.35;72.79;99620.56;5052286;28;20195;-75
2023/08/07 07:43:04;;;;;;;12.43;2.30;;;;;;;24.37;73.21;99617.81;5060186;28;20274;-73
2023/08/07 07:45:31;;;;;;;14.82;2.47;;;;;;;24.49;72.66;99623.38;5052057;28;20257;-76
2023/08/07 07:47:57;;;;;;;10.32;1.88;;;;;;;24.21;71.65;99601.81;5067864;28;20202;-73
2023/08/07 07:50:24;;;;;;;11.18;1.92;;;;;;;24.14;73.38;99625.09;5072122;28;20243;-74
2023/08/07 07:52:52;;;;;;;11.35;2.03;;;;;;;24.30;72.96;99627.84;5036881;28;20206;-75
2023/08/07 07:55:19;;;;;;;14.70;2.58;;;;;;;24.22;73.15;99634.47;5072060;28;20205;-73
2023/08/07 07:57:46;;;;;;;11.65;2.33;;;;;;;24.30;74.32;99632.28;5067754;28;20394;-75
2023/08/07 08:00:14;;;;;;;14.65;2.42;;;;;;;24.37;72.79;99625.75;5062878;28;20217;-74
2023/08/07 08:02:42;;;;;;;15.20;2.35;;;;;;;24.18;73.54;99633.75;5020314;28;20230;-75
2023/08/07 08:05:11;;;;;;;15.27;2.67;;;;;;;24.32;72.56;99625.16;5072184;28;20197;-76
2023/08/07 08:07:38;;;;;;;10.40;2.00;;;;;;;24.28;72.14;99594.44;5071984;28;20205;-75
2023/08/07 08:10:08;;;;;;;9.65;1.90;;;;;;;24.43;70.92;99613.09;5072148;28;20230;-76
2023/08/07 08:12:36;;;;;;;6.78;1.48;;;;;;;24.55;70.91;99603.66;5072020;28;20203;-74
2023/08/07 08:15:03;;;;;;;12.77;2.10;;;;;;;24.56;70.13;99618.63;5055541;28;20200;-76
2023/08/07 08:17:29;;;;;;;6.80;1.60;;;;;;;24.50;70.30;99597.75;5031837;28;20200;-74
2023/08/07 08:19:56;;;;;;;14.43;2.35;;;;;;;24.83;71.83;99622.59;5038097;28;20199;-75
2023/08/07 08:22:23;;;;;;;5.88;1.50;;;;;;;24.81;69.67;99626.22;5051326;28;20231;-74
2023/08/07 08:24:50;;;;;;;10.80;1.98;;;;;;;24.82;64.00;99626.16;5050373;28;20646;-75
2023/08/07 08:27:18;;;;;;;10.38;1.90;;;;;;;25.00;65.07;99633.22;5050054;28;20215;-76
2023/08/07 08:29:46;;;;;;;7.35;1.65;;;;;;;25.04;65.86;99633.94;5033573;28;20206;-76
2023/08/07 08:32:12;;;;;;;7.72;1.70;;;;;;;24.92;64.39;99611.53;5051882;28;20227;-74
2023/08/07 08:34:39;;;;;;;10.82;2.05;;;;;;;25.09;66.47;99623.91;5052094;28;20207;-75
2023/08/07 08:37:07;;;;;;;15.30;2.45;;;;;;;25.16;64.85;99631.47;5051823;28;20620;-73
2023/08/07 08:39:33;;;;;;;12.50;2.00;;;;;;;25.10;64.94;99628.28;5017010;28;20207;-74
2023/08/07 08:42:01;;;;;;;3.70;1.23;;;;;;;25.11;62.52;99625.53;5033335;28;20223;-74
2023/08/07 08:44:32;;;;;;;9.90;1.92;;;;;;;25.15;63.64;99626.25;5051978;28;20199;-76
2023/08/07 08:47:01;;;;;;;15.23;2.40;;;;;;;25.22;61.94;99624.16;5017235;28;20210;-73
2023/08/07 08:49:33;;;;;;;10.80;1.98;;;;;;;25.18;62.79;99637.56;5051712;28;20200;-75
2023/08/07 08:52:01;;;;;;;12.90;2.10;;;;;;;24.76;62.61;99552.19;5051887;28;20289;-75
2023/08/07 08:54:28;;;;;;;7.05;1.50;;;;;;;25.24;61.45;99632.88;5066331;28;20283;-76
2023/08/07 08:56:56;;;;;;;21.55;3.55;;;;;;;25.35;61.47;99623.44;5050536;28;20591;-73
2023/08/07 08:59:23;;;;;;;6.90;1.50;;;;;;;25.47;61.54;99620.09;5049602;28;20230;-75
2023/08/07 09:01:53;;;;;;;10.07;1.92;;;;;;;25.73;60.19;99621.41;5051128;28;20234;-74
2023/08/07 09:04:20;;;;;;;9.55;1.80;;;;;;;25.82;61.17;99618.25;5051319;28;20730;-76
2023/08/07 09:06:47;;;;;;;10.43;2.00;;;;;;;25.91;58.95;99628.38;5050996;28;20688;-77
2023/08/07 09:09:15;;;;;;;8.63;1.77;;;;;;;25.80;58.85;99622.78;5051252;28;20674;-77
2023/08/07 09:11:45;;;;;;;8.63;1.73;;;;;;;25.79;58.20;99609.59;5051207;28;20203;-74
2023/08/07 09:14:16;;;;;;;9.93;1.90;;;;;;;25.84;56.59;99634.09;5016008;28;20200;-74
2023/08/07 09:16:44;;;;;;;13.18;2.30;;;;;;;25.84;56.08;99632.31;5051084;28;20195;-74
2023/08/07 09:19:13;;;;;;;10.52;2.00;;;;;;;25.89;56.32;99638.22;5051328;28;20583;-74
2023/08/07 09:21:39;;;;;;;8.57;1.73;;;;;;;26.01;56.40;99632.22;5051290;28;20300;-74
2023/08/07 09:24:06;;;;;;;8.20;1.67;;;;;;;26.20;55.51;99648.03;5051279;28;20198;-74
2023/08/07 09:26:34;;;;;;;10.25;1.90;;;;;;;26.07;52.25;99639.88;5050846;28;20207;-75
2023/08/07 09:29:02;;;;;;;9.85;2.13;;;;;;;25.85;52.33;99636.69;5050880;28;20231;-73
2023/08/07 09:31:30;;;;;;;13.18;2.00;;;;;;;25.68;52.73;99617.28;5051216;28;20231;-73
2023/08/07 09:34:02;;;;;;;9.88;1.85;;;;;;;25.86;53.11;99633.09;5032583;28;20666;-73
2023/08/07 09:36:32;;;;;;;11.25;2.10;;;;;;;26.10;53.37;99637.03;5050976;28;20204;-73
2023/08/07 09:39:02;;;;;;;5.93;1.50;;;;;;;26.25;52.28;99639.81;5050902;28;20218;-72
2023/08/07 09:41:30;;;;;;;10.07;1.92;;;;;;;26.29;52.87;99642.19;5050647;28;20382;-74
2023/08/07 09:43:57;;;;;;;9.50;1.85;;;;;;;26.28;52.60;99619.25;5050791;28;20637;-74
2023/08/07 09:46:26;;;;;;;9.98;1.90;;;;;;;26.51;53.34;99637.38;5050688;28;20234;-74
2023/08/07 09:48:59;;;;;;;10.77;2.00;;;;;;;26.43;52.78;99628.16;5050659;28;20211;-73
2023/08/07 09:51:25;;;;;;;11.02;1.92;;;;;;;26.54;54.32;99636.38;5050695;28;20239;-73
2023/08/07 09:53:53;;;;;;;10.50;1.88;;;;;;;26.70;51.47;99650.50;5050826;28;20199;-74
2023/08/07 09:56:20;;;;;;;13.60;2.20;;;;;;;26.42;51.34;99629.94;5050408;28;20268;-73
2023/08/07 09:58:50;;;;;;;13.00;2.17;;;;;;;26.61;51.27;99643.06;5050491;28;20207;-72
2023/08/07 10:01:17;;;;;;;12.85;2.03;;;;;;;26.67;51.91;99652.47;5050778;28;20591;-74
2023/08/07 10:03:45;;;;;;;13.00;2.30;;;;;;;26.58;51.44;99643.19;5050561;28;20661;-73
2023/08/07 10:06:13;;;;;;;12.93;2.15;;;;;;;26.68;52.52;99651.53;5050707;28;20210;-73
2023/08/07 10:08:42;;;;;;;11.48;1.85;;;;;;;26.84;51.60;99634.59;5050485;28;20238;-74
2023/08/07 10:11:11;;;;;;;12.40;2.15;;;;;;;26.87;51.36;99645.06;5050389;28;20203;-74
2023/08/07 10:13:38;;;;;;;14.68;2.38;;;;;;;26.90;50.85;99633.38;5050331;28;20200;-73
2023/08/07 10:16:05;;;;;;;14.85;2.47;;;;;;;26.82;51.07;99647.16;5050676;28;20533;-73
2023/08/07 10:18:31;;;;;;;9.82;1.83;;;;;;;26.69;51.80;99632.81;5050400;28;20608;-74
2023/08/07 10:21:01;;;;;;;10.98;2.03;;;;;;;26.65;52.08;99601.19;5050465;28;20199;-73
2023/08/07 10:23:28;;;;;;;10.98;1.95;;;;;;;26.60;51.36;99630.69;5050349;28;20227;-73
2023/08/07 10:25:57;;;;;;;14.35;2.22;;;;;;;26.73;48.93;99641.47;5050345;28;20207;-75
2023/08/07 10:28:27;;;;;;;12.38;2.30;;;;;;;26.74;48.38;99633.41;5050321;28;20677;-73
2023/08/07 10:30:54;;;;;;;13.90;2.33;;;;;;;26.59;48.67;99615.66;5050226;28;20200;-73
2023/08/07 10:33:21;;;;;;;12.02;2.05;;;;;;;26.88;47.76;99628.16;5050029;28;20210;-73
2023/08/07 10:35:49;;;;;;;11.25;2.13;;;;;;;27.00;48.13;99622.09;5050553;28;20203;-73
2023/08/07 10:38:16;;;;;;;11.40;1.92;;;;;;;26.93;48.55;99611.94;5052134;28;20298;-74
2023/08/07 10:41:02;;;;;;;14.68;2.35;;;;;;;26.90;48.37;99618.28;5054412;28;20191;-75
2023/08/07 10:43:31;;;;;;;12.18;2.15;;;;;;;27.00;47.53;99627.41;5019006;28;20245;-75
2023/08/07 10:46:05;;;;;;;8.50;1.60;;;;;;;27.17;49.33;99620.25;5054393;28;20203;-73
2023/08/07 10:48:39;;;;;;;10.95;1.83;;;;;;;27.33;47.55;99624.53;5054115;28;20297;-74
2023/08/07 10:51:07;;;;;;;9.73;1.77;;;;;;;27.29;46.72;99632.81;5054237;28;20236;-73
2023/08/07 10:53:36;;;;;;;7.55;1.58;;;;;;;27.29;44.96;99625.66;5052799;28;20203;-74
2023/08/07 10:56:04;;;;;;;7.50;1.42;;;;;;;27.27;44.64;99618.72;5066092;28;20222;-75
2023/08/07 10:58:35;;;;;;;6.70;1.33;;;;;;;27.41;43.82;99626.75;5062565;28;20207;-73
2023/08/07 11:01:21;;;;;;;10.73;1.95;;;;;;;27.28;44.73;99575.19;5062547;28;20277;-75
2023/08/07 11:03:53;;;;;;;8.50;1.70;;;;;;;27.52;45.08;99592.34;5032976;28;20214;-75
2023/08/07 11:06:23;;;;;;;9.57;1.80;;;;;;;27.66;44.88;99605.66;5052741;28;20242;-75
2023/08/07 11:08:51;;;;;;;14.02;2.45;;;;;;;27.60;42.42;99622.03;5053155;28;20212;-75
2023/08/07 11:11:18;;;;;;;11.55;2.13;;;;;;;27.47;43.38;99594.44;5053819;28;20203;-75
2023/08/07 11:13:46;;;;;;;9.85;1.77;;;;;;;27.54;43.40;99587.75;5053548;28;20563;-75
2023/08/07 11:16:14;;;;;;;9.82;1.80;;;;;;;27.61;43.75;99586.47;5054001;28;20198;-73
2023/08/07 11:18:41;;;;;;;10.40;1.80;;;;;;;27.77;42.94;99605.84;5053691;28;20210;-74
2023/08/07 11:21:10;;;;;;;12.10;2.00;;;;;;;27.72;42.09;99604.44;5053484;28;20253;-75
2023/08/07 11:23:36;;;;;;;11.93;2.13;;;;;;;27.79;42.38;99576.44;5053500;28;20220;-74
2023/08/07 11:26:03;;;;;;;10.15;1.95;;;;;;;27.90;41.66;99603.25;5053159;28;20208;-74
2023/08/07 11:28:30;;;;;;;10.88;2.00;;;;;;;27.99;41.80;99595.53;5034892;28;20364;-75
2023/08/07 11:30:59;;;;;;;10.63;1.80;;;;;;;28.08;41.86;99578.09;5053472;28;20203;-74
2023/08/07 11:33:27;;;;;;;10.10;1.88;;;;;;;28.36;42.03;99603.84;5053496;28;20203;-75
2023/08/07 11:35:54;;;;;;;15.80;2.55;;;;;;;28.06;41.19;99548.00;5053063;28;20227;-74